CNC3 weather

Brampton Airport
Brampton, Ontario, Canada

Public forecast

Using degrees Celsius for public forecast. Weather courtesy of forecast.io.

Closest aviation weather report (METAR) to Brampton Airport

Closest report is Lester B. Pearson International Airport, 11.7 nm (21.7 km) ESE. Retrieved 2019/11/15 01:00 UTC (25 minutes ago):

CYYZ 150100Z 21010G16KT 15SM OVC025 00/M04 A3016 RMK SC8 SLP223

Closest aviation forecast (TAF) to Brampton Airport

Closest forecast is Lester B. Pearson International Airport, 11.7 nm (21.7 km) ESE. Retrieved 2019-11-15 03:39 UTC (0 seconds ago):

TAF CYYZ 150238Z 1503/1606 24012KT P6SM OVC030 TEMPO 1503/1508 OVC020 FM150800 24012G22KT P6SM OVC020 TEMPO 1508/1518 OVC025 BECMG 1514/1516 26015G25KT FM151800 27015G25KT P6SM BKN025 FM152100 30015G25KT P6SM -SHSNRA OVC025 FM160000 32012KT P6SM BKN030 FM160300 02010KT P6SM FEW030 RMK NXT FCST BY 150600Z